»·PEaware :: DCM2499 KSNA-KOAK

DCM2499 :: KSNA-KOAK

FLIGHT INFORMATION

Flight Status: Arrived
Operator:
DotCom
More flights by this operator :: More flights under this callsign
Pilot: Alec D. (17934)
Aircraft: EMBRAER ERJ-135/140
(E135)
More flights by this aircraft type
Origin: KSNA John Wayne-Orange Co
United States
Destination: KOAK Metro Oakland Intl
United States
More flights between these airports :: More routes between these airports
Route: HHERO3 OROSZ COREZ RGOOD EMZOH3
File this flight plan on PilotEdge
Remarks:
Altitude:
(Current/Filed)
36,000ft
Speed:
(Current/Filed)
450kts
Departed: 24-Jun-20 11:26 AM
Arrived: 24-Jun-20 12:30 PM
Distance/Time
Traveled:
322nm/1:04
Distance/Time
To Go:
Arrived

Flight Plot

Page will automatically refresh every two minutes.

Flight plan parsing failed; only flown route is shown


Map Options




Map Legend


Flown Route
Filed Route
Departure Airport
Arrival Airport
Navaid (VOR, NDB)
Fix

Horizontal Profiles

Position Reports

Time Latitude Longitude Heading Altitude Ground
Speed
24-Jun-20 10:59 33.666435 -117.873047 219 59ft 0kts
24-Jun-20 11:00 33.666435 -117.873047 219 59ft 0kts
24-Jun-20 11:01 33.666435 -117.873047 219 59ft 0kts
24-Jun-20 11:02 33.666435 -117.873047 219 59ft 0kts
24-Jun-20 11:03 33.666435 -117.873047 219 59ft 0kts
24-Jun-20 11:04 33.666435 -117.873047 219 59ft 0kts
24-Jun-20 11:05 33.666435 -117.873047 219 59ft 0kts
24-Jun-20 11:06 33.666435 -117.873047 219 59ft 0kts
24-Jun-20 11:07 33.666435 -117.873047 219 59ft 0kts
24-Jun-20 11:08 33.666435 -117.873047 219 59ft 0kts
24-Jun-20 11:09 33.666435 -117.873047 219 59ft 0kts
24-Jun-20 11:10 33.666435 -117.873047 219 59ft 0kts
24-Jun-20 11:11 33.666435 -117.873047 219 59ft 0kts
24-Jun-20 11:12 33.666435 -117.873047 219 59ft 0kts
24-Jun-20 11:13 33.666435 -117.873047 219 59ft 0kts
24-Jun-20 11:14 33.666435 -117.873047 219 59ft 0kts
24-Jun-20 11:15 33.666435 -117.873047 219 59ft 0kts
24-Jun-20 11:16 33.666435 -117.873047 219 59ft 0kts
24-Jun-20 11:17 33.665983 -117.873479 217 59ft 0kts
24-Jun-20 11:18 33.665976 -117.873486 217 59ft 0kts
24-Jun-20 11:19 33.666073 -117.873732 17 59ft 7kts
24-Jun-20 11:20 33.670537 -117.869857 38 59ft 19kts
24-Jun-20 11:21 33.674310 -117.866005 27 59ft 19kts
24-Jun-20 11:22 33.679525 -117.862959 25 59ft 21kts
24-Jun-20 11:23 33.681161 -117.864389 296 59ft 0kts
24-Jun-20 11:24 33.681215 -117.865343 207 59ft 4kts
24-Jun-20 11:25 33.653424 -117.882721 208 1105ft 163kts
24-Jun-20 11:26 33.599488 -117.895754 186 3302ft 247kts
24-Jun-20 11:27 33.540129 -117.934273 223 4962ft 253kts
24-Jun-20 11:28 33.486818 -117.994925 223 5880ft 272kts
24-Jun-20 11:29 33.446086 -118.072734 238 8701ft 284kts
24-Jun-20 11:30 33.413289 -118.159472 269 11171ft 301kts
24-Jun-20 11:31 33.432165 -118.262735 282 12782ft 332kts
24-Jun-20 11:32 33.468557 -118.364706 296 14754ft 339kts
24-Jun-20 11:33 33.516443 -118.462852 317 16479ft 347kts
24-Jun-20 11:34 33.610801 -118.478469 5 18398ft 358kts
24-Jun-20 11:35 33.709799 -118.463789 4 20441ft 358kts
24-Jun-20 11:36 33.808452 -118.461079 357 22524ft 353kts
24-Jun-20 11:37 33.907129 -118.460462 357 24439ft 353kts
24-Jun-20 11:38 34.004318 -118.462179 343 26396ft 341kts
24-Jun-20 11:39 34.090308 -118.504367 333 28255ft 331kts
24-Jun-20 11:40 34.174345 -118.547194 332 29888ft 326kts
24-Jun-20 11:41 34.257379 -118.589578 332 31363ft 321kts
24-Jun-20 11:42 34.339241 -118.631014 332 32667ft 318kts
24-Jun-20 11:43 34.420830 -118.671292 331 33840ft 314kts
24-Jun-20 11:44 34.494855 -118.723590 324 34908ft 306kts
24-Jun-20 11:45 34.568389 -118.775010 323 35792ft 306kts
24-Jun-20 11:46 34.644537 -118.828770 323 35914ft 329kts
24-Jun-20 11:47 34.726285 -118.886703 324 35989ft 351kts
24-Jun-20 11:48 34.813335 -118.948595 324 35968ft 373kts
24-Jun-20 11:49 34.905294 -119.014180 324 35956ft 393kts
24-Jun-20 11:50 35.001616 -119.083057 324 35939ft 410kts
24-Jun-20 11:51 35.101564 -119.154730 324 35921ft 418kts
24-Jun-20 11:52 35.201268 -119.226426 324 35909ft 415kts
24-Jun-20 11:53 35.300830 -119.298272 324 35903ft 414kts
24-Jun-20 11:54 35.399875 -119.369973 324 35903ft 413kts
24-Jun-20 11:55 35.498892 -119.441872 324 35899ft 414kts
24-Jun-20 11:56 35.593270 -119.521456 315 35907ft 409kts
24-Jun-20 11:57 35.681056 -119.610907 315 35905ft 410kts
24-Jun-20 11:58 35.768797 -119.700586 315 35903ft 410kts
24-Jun-20 11:59 35.856539 -119.790604 315 35904ft 411kts
24-Jun-20 12:00 35.942725 -119.883347 311 35905ft 409kts
24-Jun-20 12:01 36.024395 -119.980656 311 35906ft 409kts
24-Jun-20 12:02 36.106388 -120.078402 311 35910ft 409kts
24-Jun-20 12:03 36.188606 -120.176527 311 35910ft 409kts
24-Jun-20 12:04 36.270187 -120.274142 311 35100ft 410kts
24-Jun-20 12:05 36.352973 -120.373489 312 32870ft 419kts
24-Jun-20 12:06 36.437025 -120.474621 313 30581ft 424kts
24-Jun-20 12:07 36.521951 -120.577126 313 28354ft 426kts
24-Jun-20 12:08 36.608495 -120.674741 316 26420ft 421kts
24-Jun-20 12:09 36.696018 -120.771538 317 23960ft 413kts
24-Jun-20 12:10 36.779259 -120.864034 317 22063ft 388kts
24-Jun-20 12:11 36.859209 -120.952589 317 20540ft 381kts
24-Jun-20 12:12 36.938072 -121.040714 317 19336ft 379kts
24-Jun-20 12:13 37.016719 -121.128183 317 18100ft 380kts
24-Jun-20 12:14 37.095642 -121.216221 317 16359ft 373kts
24-Jun-20 12:15 37.171437 -121.302439 316 14801ft 368kts
24-Jun-20 12:16 37.242385 -121.384971 316 13033ft 330kts
24-Jun-20 12:17 37.307499 -121.460916 316 11230ft 312kts
24-Jun-20 12:18 37.369613 -121.533496 316 9433ft 297kts
24-Jun-20 12:19 37.429169 -121.601858 317 8299ft 287kts
24-Jun-20 12:20 37.475817 -121.679902 305 7119ft 269kts
24-Jun-20 12:21 37.520769 -121.755919 305 6509ft 265kts
24-Jun-20 12:22 37.539406 -121.841497 277 5678ft 257kts
24-Jun-20 12:23 37.549592 -121.928955 277 4952ft 244kts
24-Jun-20 12:24 37.562394 -122.012122 302 4270ft 240kts
24-Jun-20 12:25 37.607732 -122.073913 310 3000ft 247kts
24-Jun-20 12:26 37.648761 -122.135189 308 1782ft 190kts
24-Jun-20 12:27 37.676202 -122.176318 308 850ft 134kts
24-Jun-20 12:28 37.699666 -122.211519 307 111ft 129kts
24-Jun-20 12:29 37.713133 -122.231718 310 9ft 28kts
24-Jun-20 12:31 37.715842 -122.232812 22 9ft 11kts
24-Jun-20 12:32 37.712045 -122.226548 127 9ft 24kts
24-Jun-20 12:33 37.712954 -122.222162 46 9ft 21kts
24-Jun-20 12:34 37.711552 -122.217602 26 9ft 10kts
24-Jun-20 12:35 37.712260 -122.216595 130 9ft 0kts
24-Jun-20 12:36 37.712260 -122.216595 130 9ft 0kts

Navigation Log

Ident Type
Flight plan parsing failed, navigation log unavailable